createdAt,value
2023-02-05T00:01:55.239Z,63.80
2023-02-05T00:04:22.198Z,63.80
2023-02-05T00:06:49.372Z,63.80
2023-02-05T00:09:16.306Z,63.80
2023-02-05T00:11:43.209Z,63.60
2023-02-05T00:14:10.778Z,63.50
2023-02-05T00:16:37.900Z,63.50
2023-02-05T00:19:04.817Z,63.50
2023-02-05T00:21:31.804Z,63.40
2023-02-05T00:23:58.731Z,63.50
2023-02-05T00:26:25.636Z,63.50
2023-02-05T00:28:54.238Z,63.70
2023-02-05T00:31:23.181Z,63.90
2023-02-05T00:33:52.584Z,64.10
2023-02-05T00:36:21.541Z,64.30
2023-02-05T00:38:49.076Z,64.40
2023-02-05T00:41:16.936Z,64.50
2023-02-05T00:43:44.453Z,64.50
2023-02-05T00:46:13.130Z,64.50
2023-02-05T00:48:41.324Z,64.60
2023-02-05T00:51:10.269Z,65.00
2023-02-05T00:53:37.500Z,65.20
2023-02-05T00:56:04.655Z,65.40
2023-02-05T00:58:32.051Z,65.60
2023-02-05T01:00:59.026Z,65.90
2023-02-05T01:03:27.327Z,66.00
2023-02-05T01:05:54.255Z,66.10
2023-02-05T01:08:21.300Z,66.20
2023-02-05T01:10:50.760Z,66.20
2023-02-05T01:13:19.204Z,66.30
2023-02-05T01:15:46.929Z,66.40
2023-02-05T01:18:13.972Z,66.50
2023-02-05T01:20:42.471Z,66.60
2023-02-05T01:23:11.159Z,66.60
2023-02-05T01:25:38.690Z,66.80
2023-02-05T01:28:06.820Z,66.80
2023-02-05T01:30:34.931Z,67.10
2023-02-05T01:33:03.899Z,67.20
2023-02-05T01:35:31.929Z,67.30
2023-02-05T01:37:59.350Z,68.20
2023-02-05T01:40:26.566Z,67.70
2023-02-05T01:42:53.512Z,67.90
2023-02-05T01:45:23.613Z,68.20
2023-02-05T01:47:54.462Z,68.50
2023-02-05T01:50:45.387Z,68.60
2023-02-05T01:53:19.999Z,68.90
2023-02-05T01:56:00.911Z,68.80
2023-02-05T01:58:32.901Z,69.00
2023-02-05T02:00:59.963Z,68.90
2023-02-05T02:03:28.557Z,69.00
2023-02-05T02:05:56.166Z,69.10
2023-02-05T02:08:23.286Z,69.20
2023-02-05T02:10:52.979Z,69.40
2023-02-05T02:13:22.416Z,69.60
2023-02-05T02:15:50.370Z,69.70
2023-02-05T02:18:27.816Z,69.80
2023-02-05T02:21:23.222Z,70.00
2023-02-05T02:24:17.968Z,70.10
2023-02-05T02:27:21.777Z,70.10
2023-02-05T02:30:04.543Z,70.30
2023-02-05T02:33:01.605Z,70.20
2023-02-05T02:35:40.646Z,70.40
2023-02-05T02:38:54.033Z,70.40
2023-02-05T02:41:40.600Z,70.40
2023-02-05T02:44:15.950Z,70.40
2023-02-05T02:46:52.430Z,70.80
2023-02-05T02:49:37.132Z,71.10
2023-02-05T02:52:08.159Z,71.30
2023-02-05T02:54:37.286Z,71.40
2023-02-05T02:57:08.404Z,71.60
2023-02-05T02:59:38.527Z,71.70
2023-02-05T03:02:09.875Z,71.70
2023-02-05T03:04:41.051Z,71.80
2023-02-05T03:07:19.524Z,71.90
2023-02-05T03:10:01.788Z,72.00
2023-02-05T03:12:29.721Z,72.20
2023-02-05T03:14:57.291Z,72.00
2023-02-05T03:17:26.743Z,72.10
2023-02-05T03:20:06.826Z,72.20
2023-02-05T03:22:34.275Z,72.20
2023-02-05T03:25:03.068Z,72.20
2023-02-05T03:27:31.432Z,72.30
2023-02-05T03:30:00.975Z,72.30
2023-02-05T03:33:08.469Z,72.50
2023-02-05T03:35:49.645Z,72.80
2023-02-05T03:38:49.874Z,72.70
2023-02-05T03:42:12.860Z,72.60
2023-02-05T03:45:03.273Z,72.80
2023-02-05T03:48:17.329Z,72.80
2023-02-05T03:51:16.165Z,73.00
2023-02-05T03:53:58.086Z,73.00
2023-02-05T03:56:50.241Z,73.00
2023-02-05T03:59:18.957Z,73.00
2023-02-05T04:01:46.989Z,73.10
2023-02-05T04:04:15.221Z,73.20
2023-02-05T04:06:42.748Z,73.20
2023-02-05T04:09:11.303Z,73.30
2023-02-05T04:11:39.265Z,73.30
2023-02-05T04:14:06.289Z,73.30
2023-02-05T04:16:33.982Z,73.30
2023-02-05T04:19:01.434Z,73.30
2023-02-05T04:21:29.460Z,73.40
2023-02-05T04:23:56.975Z,73.40
2023-02-05T04:26:24.637Z,73.50
2023-02-05T04:29:00.544Z,73.50
2023-02-05T04:31:29.509Z,73.60
2023-02-05T04:33:57.218Z,73.60
2023-02-05T04:36:24.744Z,73.80
2023-02-05T04:38:51.896Z,73.90
2023-02-05T04:41:21.215Z,74.00
2023-02-05T04:43:48.200Z,74.10
2023-02-05T04:46:15.083Z,74.20
2023-02-05T04:48:41.994Z,74.30
2023-02-05T04:51:13.827Z,74.40
2023-02-05T04:53:41.600Z,74.30
2023-02-05T04:56:15.531Z,74.20
2023-02-05T04:58:43.644Z,74.10
2023-02-05T05:01:22.786Z,74.00
2023-02-05T05:03:50.830Z,74.00
2023-02-05T05:06:20.308Z,73.70
2023-02-05T05:08:47.258Z,73.60
2023-02-05T05:11:18.666Z,73.50
2023-02-05T05:13:46.459Z,73.40
2023-02-05T05:16:13.695Z,73.40
2023-02-05T05:18:41.031Z,73.40
2023-02-05T05:21:08.592Z,73.30
2023-02-05T05:23:37.468Z,73.40
2023-02-05T05:26:07.801Z,73.30
2023-02-05T05:28:35.740Z,73.20
2023-02-05T05:31:17.229Z,73.20
2023-02-05T05:33:44.109Z,73.20
2023-02-05T05:36:11.179Z,73.20
2023-02-05T05:38:38.457Z,73.30
2023-02-05T05:41:24.151Z,73.30
2023-02-05T05:43:55.098Z,73.30
2023-02-05T05:46:26.080Z,73.30
2023-02-05T05:48:58.783Z,73.30
2023-02-05T05:51:27.997Z,73.20
2023-02-05T05:53:55.789Z,73.20
2023-02-05T05:56:23.297Z,73.10
2023-02-05T05:58:50.753Z,73.00
2023-02-05T06:01:20.479Z,72.90
2023-02-05T06:03:47.711Z,72.90
2023-02-05T06:06:14.639Z,72.80
2023-02-05T06:08:41.680Z,72.70
2023-02-05T06:11:08.876Z,72.70
2023-02-05T06:13:35.812Z,72.50
2023-02-05T06:16:03.728Z,72.50
2023-02-05T06:18:31.096Z,72.40
2023-02-05T06:20:58.139Z,72.40
2023-02-05T06:23:25.008Z,72.50
2023-02-05T06:25:52.083Z,72.50
2023-02-05T06:28:19.547Z,72.50
2023-02-05T06:30:46.691Z,72.60
2023-02-05T06:33:13.832Z,72.80
2023-02-05T06:35:42.219Z,73.00
2023-02-05T06:38:09.675Z,73.10
2023-02-05T06:40:37.010Z,73.10
2023-02-05T06:43:04.260Z,73.10
2023-02-05T06:45:31.185Z,73.20
2023-02-05T06:47:58.962Z,73.30
2023-02-05T06:50:26.120Z,73.40
2023-02-05T06:52:53.226Z,73.50
2023-02-05T06:55:20.445Z,73.50
2023-02-05T06:57:47.743Z,73.50
2023-02-05T07:00:15.987Z,73.50
2023-02-05T07:02:43.185Z,73.60
2023-02-05T07:05:10.370Z,73.70
2023-02-05T07:07:37.344Z,73.70
2023-02-05T07:10:05.021Z,73.60
2023-02-05T07:12:32.047Z,73.60
2023-02-05T07:14:59.186Z,73.50
2023-02-05T07:17:26.455Z,73.50
2023-02-05T07:19:53.506Z,73.50
2023-02-05T07:22:20.628Z,73.30
2023-02-05T07:24:47.535Z,73.20
2023-02-05T07:27:14.531Z,73.20
2023-02-05T07:29:41.864Z,73.20
2023-02-05T07:32:08.914Z,73.20
2023-02-05T07:34:35.995Z,73.20
2023-02-05T07:37:03.002Z,73.10
2023-02-05T07:39:30.072Z,73.00
2023-02-05T07:41:57.012Z,73.00
2023-02-05T07:44:35.390Z,73.00
2023-02-05T07:47:02.321Z,73.00
2023-02-05T07:49:29.276Z,73.10
2023-02-05T07:51:56.160Z,73.00
2023-02-05T07:54:24.533Z,72.90
2023-02-05T07:56:51.399Z,72.90
2023-02-05T07:59:18.366Z,72.90
2023-02-05T08:01:45.508Z,72.90
2023-02-05T08:04:12.623Z,72.80
2023-02-05T08:06:39.702Z,72.80
2023-02-05T08:09:06.645Z,73.30
2023-02-05T08:11:33.764Z,72.40
2023-02-05T08:14:01.280Z,73.10
2023-02-05T08:16:28.322Z,72.40
2023-02-05T08:18:55.252Z,72.30
2023-02-05T08:21:22.206Z,72.40
2023-02-05T08:23:50.010Z,72.30
2023-02-05T08:26:18.910Z,72.30
2023-02-05T08:28:46.539Z,72.10
2023-02-05T08:31:18.471Z,71.90
2023-02-05T08:33:48.232Z,71.60
2023-02-05T08:36:15.949Z,71.50
2023-02-05T08:38:44.189Z,71.50
2023-02-05T08:41:15.408Z,71.40
2023-02-05T08:43:49.289Z,71.50
2023-02-05T08:46:22.016Z,71.10
2023-02-05T08:48:50.745Z,71.00
2023-02-05T08:51:20.338Z,70.90
2023-02-05T08:53:47.972Z,70.70
2023-02-05T08:56:16.014Z,70.40
2023-02-05T08:58:44.240Z,70.10
2023-02-05T09:01:17.220Z,70.00
2023-02-05T09:03:46.421Z,69.80
2023-02-05T09:06:17.427Z,69.70
2023-02-05T09:08:45.321Z,69.60
2023-02-05T09:11:13.684Z,69.50
2023-02-05T09:13:41.793Z,69.40
2023-02-05T09:16:11.177Z,69.30
2023-02-05T09:18:38.280Z,69.20
2023-02-05T09:21:10.668Z,68.90
2023-02-05T09:23:38.397Z,68.30
2023-02-05T09:26:07.173Z,67.80
2023-02-05T09:28:34.435Z,67.50
2023-02-05T09:31:12.372Z,67.40
2023-02-05T09:33:39.809Z,67.10
2023-02-05T09:36:14.530Z,66.80
2023-02-05T09:38:41.693Z,66.10
2023-02-05T09:41:18.042Z,65.80
2023-02-05T09:44:14.115Z,65.20
2023-02-05T09:47:03.112Z,64.60
2023-02-05T09:49:56.409Z,64.50
2023-02-05T09:52:47.625Z,64.30
2023-02-05T09:55:34.114Z,63.80
2023-02-05T09:58:07.006Z,63.70
2023-02-05T10:00:46.452Z,63.70
2023-02-05T10:03:43.253Z,63.50
2023-02-05T10:06:10.898Z,63.30
2023-02-05T10:08:58.900Z,63.80
2023-02-05T10:11:36.585Z,63.20
2023-02-05T10:14:27.142Z,63.10
2023-02-05T10:17:08.575Z,63.40
2023-02-05T10:20:07.746Z,63.70
2023-02-05T10:22:51.641Z,63.40
2023-02-05T10:25:54.230Z,63.60
2023-02-05T10:28:54.099Z,63.10
2023-02-05T10:32:15.118Z,62.20
2023-02-05T10:35:24.568Z,61.10
2023-02-05T10:37:57.593Z,59.50
2023-02-05T10:40:32.022Z,59.30
2023-02-05T10:43:27.600Z,57.80
2023-02-05T10:45:56.635Z,56.10
2023-02-05T10:48:54.876Z,56.00
2023-02-05T10:51:32.263Z,55.40
2023-02-05T10:54:00.816Z,55.00
2023-02-05T10:56:27.853Z,55.10
2023-02-05T10:59:04.491Z,55.80
2023-02-05T11:01:38.687Z,54.60
2023-02-05T11:04:15.805Z,54.40
2023-02-05T11:06:48.454Z,54.10
2023-02-05T11:09:25.893Z,54.00
2023-02-05T11:11:59.384Z,53.80
2023-02-05T11:14:42.097Z,53.30
2023-02-05T11:17:24.512Z,53.20
2023-02-05T11:19:59.584Z,52.80
2023-02-05T11:22:41.741Z,52.10
2023-02-05T11:25:26.500Z,51.60
2023-02-05T11:28:03.958Z,51.00
2023-02-05T11:30:50.479Z,50.80
2023-02-05T11:33:31.281Z,50.60
2023-02-05T11:36:05.649Z,50.40
2023-02-05T11:38:52.205Z,50.70
2023-02-05T11:41:49.670Z,50.70
2023-02-05T11:44:19.418Z,50.60
2023-02-05T11:46:46.858Z,52.50
2023-02-05T11:49:31.925Z,51.70
2023-02-05T11:51:59.695Z,50.70
2023-02-05T11:54:32.890Z,50.70
2023-02-05T11:57:20.112Z,50.20
2023-02-05T12:00:08.907Z,49.20
2023-02-05T12:02:38.717Z,49.20
2023-02-05T12:05:18.334Z,49.70
2023-02-05T12:07:58.408Z,49.00
2023-02-05T12:11:00.880Z,48.40
2023-02-05T12:14:06.120Z,48.10
2023-02-05T12:16:48.148Z,47.90
2023-02-05T12:19:56.721Z,48.00
2023-02-05T12:23:15.128Z,48.00
2023-02-05T12:26:06.648Z,47.80
2023-02-05T12:29:01.586Z,48.00
2023-02-05T12:31:36.834Z,47.50
2023-02-05T12:34:10.049Z,48.00
2023-02-05T12:37:02.329Z,47.10
2023-02-05T12:39:54.586Z,47.30
2023-02-05T12:42:31.097Z,46.50
2023-02-05T12:45:28.288Z,46.70
2023-02-05T12:48:04.415Z,47.60
2023-02-05T12:50:57.781Z,46.90
2023-02-05T12:53:59.249Z,46.30
2023-02-05T12:57:16.134Z,45.90
2023-02-05T13:00:07.172Z,45.50
2023-02-05T13:02:53.424Z,45.70
2023-02-05T13:05:48.892Z,45.80
2023-02-05T13:08:48.033Z,45.70
2023-02-05T13:11:25.780Z,45.60
2023-02-05T13:14:06.562Z,45.50
2023-02-05T13:16:47.731Z,45.00
2023-02-05T13:19:41.160Z,45.10
2023-02-05T13:22:41.848Z,45.40
2023-02-05T13:25:45.052Z,45.60
2023-02-05T13:28:42.569Z,45.60
2023-02-05T13:31:27.346Z,45.00
2023-02-05T13:34:01.540Z,45.30
2023-02-05T13:37:01.091Z,45.80
2023-02-05T13:40:15.713Z,45.30
2023-02-05T13:43:04.824Z,44.30
2023-02-05T13:45:59.393Z,44.50
2023-02-05T13:49:00.237Z,43.40
2023-02-05T13:51:47.507Z,42.60
2023-02-05T13:54:53.501Z,41.60
2023-02-05T13:58:21.399Z,40.60
2023-02-05T14:01:21.409Z,40.40
2023-02-05T14:04:22.091Z,40.10
2023-02-05T14:07:09.697Z,39.80
2023-02-05T14:09:44.196Z,39.90
2023-02-05T14:12:22.231Z,40.10
2023-02-05T14:15:17.361Z,40.50
2023-02-05T14:17:44.342Z,40.60
2023-02-05T14:20:45.418Z,40.90
2023-02-05T14:23:49.161Z,39.70
2023-02-05T14:26:36.876Z,40.00
2023-02-05T14:29:12.917Z,40.00
2023-02-05T14:31:48.959Z,39.70
2023-02-05T14:34:47.856Z,39.40
2023-02-05T14:37:30.855Z,39.20
2023-02-05T14:39:58.848Z,39.10
2023-02-05T14:42:29.643Z,39.20
2023-02-05T14:44:58.046Z,39.10
2023-02-05T14:47:30.149Z,39.10
2023-02-05T14:50:09.825Z,38.80
2023-02-05T14:52:47.925Z,39.10
2023-02-05T14:55:14.828Z,39.60
2023-02-05T14:57:51.635Z,40.00
2023-02-05T15:00:30.625Z,40.20
2023-02-05T15:03:12.554Z,40.50
2023-02-05T15:05:46.150Z,40.80
2023-02-05T15:08:34.271Z,41.20
2023-02-05T15:11:51.152Z,41.50
2023-02-05T15:14:35.523Z,41.70
2023-02-05T15:17:05.585Z,42.10
2023-02-05T15:19:46.686Z,42.50
2023-02-05T15:22:37.550Z,42.80
2023-02-05T15:25:14.438Z,43.40
2023-02-05T15:27:55.864Z,43.50
2023-02-05T15:30:28.439Z,43.70
2023-02-05T15:33:04.166Z,43.90
2023-02-05T15:35:33.743Z,44.20
2023-02-05T15:38:43.288Z,44.40
2023-02-05T15:41:12.996Z,44.90
2023-02-05T15:43:40.104Z,45.00
2023-02-05T15:46:12.068Z,45.30
2023-02-05T15:48:40.844Z,45.60
2023-02-05T15:51:35.802Z,46.00
2023-02-05T15:54:05.513Z,46.60
2023-02-05T15:56:41.995Z,46.80
2023-02-05T15:59:16.485Z,47.20
2023-02-05T16:02:00.969Z,47.20
2023-02-05T16:04:35.328Z,47.50
2023-02-05T16:07:03.598Z,47.80
2023-02-05T16:09:34.973Z,48.20
2023-02-05T16:12:12.931Z,48.60
2023-02-05T16:14:40.170Z,49.20
2023-02-05T16:17:19.853Z,49.40
2023-02-05T16:20:07.183Z,49.80
2023-02-05T16:22:45.680Z,50.10
2023-02-05T16:25:44.587Z,50.50
2023-02-05T16:28:24.811Z,50.90
2023-02-05T16:30:55.779Z,51.20
2023-02-05T16:34:02.150Z,51.30
2023-02-05T16:36:37.756Z,52.00
2023-02-05T16:39:16.680Z,52.00
2023-02-05T16:41:45.200Z,52.30
2023-02-05T16:44:30.809Z,52.50
2023-02-05T16:47:15.573Z,52.90
2023-02-05T16:49:46.077Z,53.00
2023-02-05T16:52:35.588Z,53.10
2023-02-05T16:55:26.198Z,53.60
2023-02-05T16:57:55.236Z,53.60
2023-02-05T17:00:27.572Z,53.50
2023-02-05T17:03:08.090Z,53.90
2023-02-05T17:05:36.999Z,54.30
2023-02-05T17:08:09.029Z,54.40
2023-02-05T17:10:54.931Z,54.70
2023-02-05T17:13:48.906Z,55.00
2023-02-05T17:16:31.985Z,55.10
2023-02-05T17:19:22.844Z,55.10
2023-02-05T17:22:15.540Z,55.30
2023-02-05T17:24:47.350Z,55.70
2023-02-05T17:27:28.679Z,55.70
2023-02-05T17:29:58.736Z,56.00
2023-02-05T17:32:27.150Z,56.20
2023-02-05T17:34:54.230Z,56.20
2023-02-05T17:37:21.384Z,56.40
2023-02-05T17:39:49.772Z,56.70
2023-02-05T17:42:25.723Z,56.90
2023-02-05T17:44:53.654Z,57.20
2023-02-05T17:47:20.661Z,57.30
2023-02-05T17:49:47.819Z,57.40
2023-02-05T17:52:17.775Z,57.60
2023-02-05T17:54:47.679Z,57.80
2023-02-05T17:57:21.000Z,58.00
2023-02-05T17:59:48.829Z,58.30
2023-02-05T18:02:16.705Z,58.40
2023-02-05T18:04:45.161Z,58.60
2023-02-05T18:07:32.505Z,58.80
2023-02-05T18:09:59.601Z,59.10
2023-02-05T18:12:27.417Z,59.10
2023-02-05T18:14:54.903Z,59.30
2023-02-05T18:17:21.920Z,59.50
2023-02-05T18:19:48.926Z,59.80
2023-02-05T18:22:15.964Z,60.00
2023-02-05T18:24:43.044Z,60.40
2023-02-05T18:27:11.940Z,60.60
2023-02-05T18:29:40.011Z,60.80
2023-02-05T18:32:07.660Z,61.00
2023-02-05T18:34:34.737Z,61.20
2023-02-05T18:37:01.756Z,61.40
2023-02-05T18:39:29.491Z,61.60
2023-02-05T18:41:57.551Z,61.90
2023-02-05T18:44:26.455Z,62.10
2023-02-05T18:46:54.159Z,62.30
2023-02-05T18:49:21.180Z,62.50
2023-02-05T18:51:48.139Z,62.70
2023-02-05T18:54:15.130Z,63.60
2023-02-05T18:56:42.198Z,63.00
2023-02-05T18:59:13.765Z,63.30
2023-02-05T19:01:41.645Z,63.50
2023-02-05T19:04:14.745Z,63.70
2023-02-05T19:06:45.379Z,64.00
2023-02-05T19:09:12.480Z,64.00
2023-02-05T19:11:44.129Z,64.20
2023-02-05T19:14:13.924Z,64.40
2023-02-05T19:16:42.227Z,64.40
2023-02-05T19:19:12.536Z,64.60
2023-02-05T19:21:40.578Z,64.80
2023-02-05T19:24:10.578Z,65.10
2023-02-05T19:26:40.092Z,64.90
2023-02-05T19:29:12.799Z,65.10
2023-02-05T19:31:40.434Z,65.30
2023-02-05T19:34:08.109Z,65.50
2023-02-05T19:36:36.208Z,65.70
2023-02-05T19:39:07.468Z,66.50
2023-02-05T19:41:36.423Z,66.00
2023-02-05T19:44:07.707Z,66.20
2023-02-05T19:46:48.980Z,66.40
2023-02-05T19:49:20.254Z,66.60
2023-02-05T19:51:50.826Z,67.50
2023-02-05T19:54:20.583Z,66.90
2023-02-05T19:56:48.894Z,67.00
2023-02-05T19:59:16.689Z,67.30
2023-02-05T20:01:45.254Z,67.50
2023-02-05T20:04:19.107Z,67.70
2023-02-05T20:06:47.213Z,67.90
2023-02-05T20:09:16.531Z,68.00
2023-02-05T20:11:47.759Z,68.20
2023-02-05T20:14:17.126Z,68.40
2023-02-05T20:16:45.136Z,68.50
2023-02-05T20:19:14.674Z,68.60
2023-02-05T20:21:42.820Z,68.70
2023-02-05T20:24:10.321Z,68.80
2023-02-05T20:26:38.133Z,68.90
2023-02-05T20:29:24.172Z,69.00
2023-02-05T20:31:52.951Z,69.20
2023-02-05T20:34:26.324Z,69.40
2023-02-05T20:36:57.309Z,69.50
2023-02-05T20:39:28.785Z,69.60
2023-02-05T20:41:58.394Z,69.80
2023-02-05T20:44:27.597Z,69.80
2023-02-05T20:46:55.083Z,70.00
2023-02-05T20:49:22.783Z,70.20
2023-02-05T20:51:49.811Z,70.30
2023-02-05T20:54:17.301Z,70.30
2023-02-05T20:56:44.559Z,70.40
2023-02-05T20:59:12.731Z,70.50
2023-02-05T21:01:40.657Z,70.50
2023-02-05T21:04:09.858Z,70.60
2023-02-05T21:06:40.106Z,70.80
2023-02-05T21:09:09.288Z,70.90
2023-02-05T21:11:37.829Z,70.90
2023-02-05T21:14:06.067Z,70.90
2023-02-05T21:16:35.220Z,71.00
2023-02-05T21:19:05.524Z,71.20
2023-02-05T21:21:36.039Z,71.30
2023-02-05T21:24:07.545Z,71.30
2023-02-05T21:26:38.242Z,71.40
2023-02-05T21:29:10.137Z,71.40
2023-02-05T21:31:43.912Z,71.40
2023-02-05T21:34:29.189Z,71.50
2023-02-05T21:36:57.910Z,71.60
2023-02-05T21:39:25.460Z,71.60
2023-02-05T21:41:53.295Z,71.70
2023-02-05T21:44:20.391Z,71.80
2023-02-05T21:46:47.562Z,72.00
2023-02-05T21:49:14.980Z,71.90
2023-02-05T21:51:42.401Z,72.00
2023-02-05T21:54:10.781Z,72.20
2023-02-05T21:56:41.643Z,72.30
2023-02-05T21:59:11.056Z,72.60
2023-02-05T22:01:38.680Z,72.70
2023-02-05T22:04:12.161Z,72.80
2023-02-05T22:06:39.881Z,72.90
2023-02-05T22:09:09.911Z,73.70
2023-02-05T22:11:39.458Z,73.00
2023-02-05T22:14:07.560Z,73.80
2023-02-05T22:16:36.132Z,73.10
2023-02-05T22:19:04.565Z,73.20
2023-02-05T22:21:38.476Z,73.20
2023-02-05T22:24:06.996Z,73.30
2023-02-05T22:26:38.086Z,73.30
2023-02-05T22:29:07.454Z,73.30
2023-02-05T22:31:35.300Z,73.30
2023-02-05T22:34:03.949Z,73.50
2023-02-05T22:36:33.657Z,73.60
2023-02-05T22:39:01.213Z,73.70
2023-02-05T22:41:47.848Z,73.70
2023-02-05T22:44:14.890Z,73.80
2023-02-05T22:46:43.873Z,73.70
2023-02-05T22:49:15.530Z,73.70
2023-02-05T22:51:43.411Z,73.70
2023-02-05T22:54:13.942Z,73.60
2023-02-05T22:56:40.947Z,73.60
2023-02-05T22:59:08.744Z,73.80
2023-02-05T23:01:40.265Z,73.80
2023-02-05T23:04:09.295Z,73.90
2023-02-05T23:06:40.744Z,74.00
2023-02-05T23:09:16.610Z,74.10
2023-02-05T23:11:44.302Z,74.10
2023-02-05T23:14:13.724Z,74.10
2023-02-05T23:16:44.941Z,74.00
2023-02-05T23:19:18.711Z,74.10
2023-02-05T23:21:47.045Z,74.10
2023-02-05T23:24:14.788Z,74.00
2023-02-05T23:26:46.065Z,74.10
2023-02-05T23:29:15.437Z,74.10
2023-02-05T23:31:43.054Z,74.10
2023-02-05T23:34:10.346Z,74.10
2023-02-05T23:36:37.576Z,74.20
2023-02-05T23:39:05.050Z,74.20
2023-02-05T23:41:39.406Z,74.30
2023-02-05T23:44:18.717Z,74.40
2023-02-05T23:46:48.238Z,74.60
2023-02-05T23:49:16.284Z,74.70
2023-02-05T23:51:43.174Z,74.80
2023-02-05T23:54:11.907Z,74.70
2023-02-05T23:56:39.102Z,74.80
2023-02-05T23:59:07.008Z,74.90
